sensor_id;sensor_type;location;lat;lon;timestamp;P1;durP1;ratioP1;P2;durP2;ratioP2
63836;SDS011;49991;50.518;30.486;2022-07-05T00:00:03;1.95;;;1.85;;
63836;SDS011;49991;50.518;30.486;2022-07-05T00:02:38;1.92;;;1.83;;
63836;SDS011;49991;50.518;30.486;2022-07-05T00:05:05;2.10;;;2.00;;
63836;SDS011;49991;50.518;30.486;2022-07-05T00:07:32;1.80;;;1.70;;
63836;SDS011;49991;50.518;30.486;2022-07-05T00:09:58;2.00;;;1.90;;
63836;SDS011;49991;50.518;30.486;2022-07-05T00:12:28;2.20;;;2.10;;
63836;SDS011;49991;50.518;30.486;2022-07-05T00:14:57;2.38;;;2.20;;
63836;SDS011;49991;50.518;30.486;2022-07-05T00:17:24;2.20;;;2.10;;
63836;SDS011;49991;50.518;30.486;2022-07-05T00:19:51;2.00;;;1.90;;
63836;SDS011;49991;50.518;30.486;2022-07-05T00:22:18;2.08;;;1.98;;
63836;SDS011;49991;50.518;30.486;2022-07-05T00:24:44;2.35;;;2.25;;
63836;SDS011;49991;50.518;30.486;2022-07-05T00:27:11;2.25;;;2.15;;
63836;SDS011;49991;50.518;30.486;2022-07-05T00:29:39;2.10;;;2.00;;
63836;SDS011;49991;50.518;30.486;2022-07-05T00:32:06;1.98;;;1.83;;
63836;SDS011;49991;50.518;30.486;2022-07-05T00:34:33;2.40;;;2.30;;
63836;SDS011;49991;50.518;30.486;2022-07-05T00:36:59;2.10;;;2.00;;
63836;SDS011;49991;50.518;30.486;2022-07-05T00:39:26;2.00;;;1.90;;
63836;SDS011;49991;50.518;30.486;2022-07-05T00:41:53;2.22;;;2.13;;
63836;SDS011;49991;50.518;30.486;2022-07-05T00:44:27;2.20;;;2.10;;
63836;SDS011;49991;50.518;30.486;2022-07-05T00:46:56;2.10;;;2.00;;
63836;SDS011;49991;50.518;30.486;2022-07-05T00:49:23;2.05;;;1.95;;
63836;SDS011;49991;50.518;30.486;2022-07-05T00:51:50;2.58;;;2.20;;
63836;SDS011;49991;50.518;30.486;2022-07-05T00:54:16;2.40;;;2.20;;
63836;SDS011;49991;50.518;30.486;2022-07-05T00:56:43;2.35;;;2.25;;
63836;SDS011;49991;50.518;30.486;2022-07-05T00:59:11;2.60;;;2.42;;
63836;SDS011;49991;50.518;30.486;2022-07-05T01:01:37;2.47;;;2.38;;
63836;SDS011;49991;50.518;30.486;2022-07-05T01:04:05;2.42;;;2.25;;
63836;SDS011;49991;50.518;30.486;2022-07-05T01:06:32;2.30;;;2.20;;
63836;SDS011;49991;50.518;30.486;2022-07-05T01:09:00;2.20;;;2.10;;
63836;SDS011;49991;50.518;30.486;2022-07-05T01:11:27;2.50;;;2.30;;
63836;SDS011;49991;50.518;30.486;2022-07-05T01:13:54;2.13;;;2.03;;
63836;SDS011;49991;50.518;30.486;2022-07-05T01:16:21;2.30;;;2.20;;
63836;SDS011;49991;50.518;30.486;2022-07-05T01:18:48;2.38;;;2.17;;
63836;SDS011;49991;50.518;30.486;2022-07-05T01:21:16;2.30;;;2.20;;
63836;SDS011;49991;50.518;30.486;2022-07-05T01:23:46;2.20;;;2.10;;
63836;SDS011;49991;50.518;30.486;2022-07-05T01:26:14;2.40;;;2.30;;
63836;SDS011;49991;50.518;30.486;2022-07-05T01:28:41;2.55;;;2.35;;
63836;SDS011;49991;50.518;30.486;2022-07-05T01:31:08;2.17;;;2.08;;
63836;SDS011;49991;50.518;30.486;2022-07-05T01:33:34;2.40;;;2.30;;
63836;SDS011;49991;50.518;30.486;2022-07-05T01:36:01;2.30;;;2.10;;
63836;SDS011;49991;50.518;30.486;2022-07-05T01:38:28;2.47;;;2.30;;
63836;SDS011;49991;50.518;30.486;2022-07-05T01:40:57;2.38;;;2.28;;
63836;SDS011;49991;50.518;30.486;2022-07-05T01:43:23;2.67;;;2.47;;
63836;SDS011;49991;50.518;30.486;2022-07-05T01:45:50;2.40;;;2.30;;
63836;SDS011;49991;50.518;30.486;2022-07-05T01:48:19;2.08;;;1.98;;
63836;SDS011;49991;50.518;30.486;2022-07-05T01:50:48;2.33;;;2.22;;
63836;SDS011;49991;50.518;30.486;2022-07-05T01:53:18;2.60;;;2.40;;
63836;SDS011;49991;50.518;30.486;2022-07-05T01:55:47;2.58;;;2.47;;
63836;SDS011;49991;50.518;30.486;2022-07-05T01:58:15;2.40;;;2.30;;
63836;SDS011;49991;50.518;30.486;2022-07-05T02:00:43;2.50;;;2.30;;
63836;SDS011;49991;50.518;30.486;2022-07-05T02:03:11;2.42;;;2.33;;
63836;SDS011;49991;50.518;30.486;2022-07-05T02:05:39;2.70;;;2.50;;
63836;SDS011;49991;50.518;30.486;2022-07-05T02:08:08;2.65;;;2.50;;
63836;SDS011;49991;50.518;30.486;2022-07-05T02:10:35;2.40;;;2.30;;
63836;SDS011;49991;50.518;30.486;2022-07-05T02:13:02;2.70;;;2.50;;
63836;SDS011;49991;50.518;30.486;2022-07-05T02:15:31;2.90;;;2.70;;
63836;SDS011;49991;50.518;30.486;2022-07-05T02:17:58;2.90;;;2.70;;
63836;SDS011;49991;50.518;30.486;2022-07-05T02:20:25;2.40;;;2.30;;
63836;SDS011;49991;50.518;30.486;2022-07-05T02:22:52;2.83;;;2.63;;
63836;SDS011;49991;50.518;30.486;2022-07-05T02:25:19;2.85;;;2.65;;
63836;SDS011;49991;50.518;30.486;2022-07-05T02:27:47;2.58;;;2.30;;
63836;SDS011;49991;50.518;30.486;2022-07-05T02:30:14;2.50;;;2.30;;
63836;SDS011;49991;50.518;30.486;2022-07-05T02:32:43;2.80;;;2.60;;
63836;SDS011;49991;50.518;30.486;2022-07-05T02:35:10;2.55;;;2.38;;
63836;SDS011;49991;50.518;30.486;2022-07-05T02:37:38;2.35;;;2.25;;
63836;SDS011;49991;50.518;30.486;2022-07-05T02:40:06;2.67;;;2.55;;
63836;SDS011;49991;50.518;30.486;2022-07-05T02:42:38;2.35;;;2.25;;
63836;SDS011;49991;50.518;30.486;2022-07-05T02:45:09;2.53;;;2.33;;
63836;SDS011;49991;50.518;30.486;2022-07-05T02:47:37;2.70;;;2.50;;
63836;SDS011;49991;50.518;30.486;2022-07-05T02:50:06;2.50;;;2.40;;
63836;SDS011;49991;50.518;30.486;2022-07-05T02:52:36;2.40;;;2.30;;
63836;SDS011;49991;50.518;30.486;2022-07-05T02:55:04;2.38;;;2.28;;
63836;SDS011;49991;50.518;30.486;2022-07-05T02:57:31;2.80;;;2.60;;
63836;SDS011;49991;50.518;30.486;2022-07-05T03:00:03;2.80;;;2.60;;
63836;SDS011;49991;50.518;30.486;2022-07-05T03:02:38;2.80;;;2.60;;
63836;SDS011;49991;50.518;30.486;2022-07-05T03:05:08;2.50;;;2.30;;
63836;SDS011;49991;50.518;30.486;2022-07-05T03:07:36;2.55;;;2.45;;
63836;SDS011;49991;50.518;30.486;2022-07-05T03:10:04;2.85;;;2.67;;
63836;SDS011;49991;50.518;30.486;2022-07-05T03:12:33;2.60;;;2.50;;
63836;SDS011;49991;50.518;30.486;2022-07-05T03:15:00;2.90;;;2.70;;
63836;SDS011;49991;50.518;30.486;2022-07-05T03:17:27;2.42;;;2.33;;
63836;SDS011;49991;50.518;30.486;2022-07-05T03:19:54;2.85;;;2.65;;
63836;SDS011;49991;50.518;30.486;2022-07-05T03:22:23;2.55;;;2.38;;
63836;SDS011;49991;50.518;30.486;2022-07-05T03:24:50;2.70;;;2.50;;
63836;SDS011;49991;50.518;30.486;2022-07-05T03:27:17;2.40;;;2.30;;
63836;SDS011;49991;50.518;30.486;2022-07-05T03:29:47;2.42;;;2.33;;
63836;SDS011;49991;50.518;30.486;2022-07-05T03:32:14;3.03;;;2.72;;
63836;SDS011;49991;50.518;30.486;2022-07-05T03:34:41;2.88;;;2.67;;
63836;SDS011;49991;50.518;30.486;2022-07-05T03:37:09;2.70;;;2.50;;
63836;SDS011;49991;50.518;30.486;2022-07-05T03:39:37;2.90;;;2.70;;
63836;SDS011;49991;50.518;30.486;2022-07-05T03:42:05;2.80;;;2.60;;
63836;SDS011;49991;50.518;30.486;2022-07-05T03:44:32;2.65;;;2.47;;
63836;SDS011;49991;50.518;30.486;2022-07-05T03:47:02;2.75;;;2.55;;
63836;SDS011;49991;50.518;30.486;2022-07-05T03:49:29;2.85;;;2.65;;
63836;SDS011;49991;50.518;30.486;2022-07-05T03:51:55;2.50;;;2.40;;
63836;SDS011;49991;50.518;30.486;2022-07-05T03:54:22;2.58;;;2.42;;
63836;SDS011;49991;50.518;30.486;2022-07-05T03:56:50;2.90;;;2.70;;
63836;SDS011;49991;50.518;30.486;2022-07-05T03:59:17;2.67;;;2.50;;
63836;SDS011;49991;50.518;30.486;2022-07-05T04:01:45;2.80;;;2.60;;
63836;SDS011;49991;50.518;30.486;2022-07-05T04:04:13;2.80;;;2.60;;
63836;SDS011;49991;50.518;30.486;2022-07-05T04:06:40;3.05;;;2.85;;
63836;SDS011;49991;50.518;30.486;2022-07-05T04:09:06;2.90;;;2.70;;
63836;SDS011;49991;50.518;30.486;2022-07-05T04:11:33;2.75;;;2.55;;
63836;SDS011;49991;50.518;30.486;2022-07-05T04:14:02;2.60;;;2.40;;
63836;SDS011;49991;50.518;30.486;2022-07-05T04:16:29;2.63;;;2.53;;
63836;SDS011;49991;50.518;30.486;2022-07-05T04:18:58;2.40;;;2.30;;
63836;SDS011;49991;50.518;30.486;2022-07-05T04:21:27;2.55;;;2.45;;
63836;SDS011;49991;50.518;30.486;2022-07-05T04:23:55;2.85;;;2.65;;
63836;SDS011;49991;50.518;30.486;2022-07-05T04:26:21;2.63;;;2.53;;
63836;SDS011;49991;50.518;30.486;2022-07-05T04:28:48;2.80;;;2.60;;
63836;SDS011;49991;50.518;30.486;2022-07-05T04:31:23;2.97;;;2.78;;
63836;SDS011;49991;50.518;30.486;2022-07-05T04:33:52;2.80;;;2.60;;
63836;SDS011;49991;50.518;30.486;2022-07-05T04:36:23;3.40;;;2.33;;
63836;SDS011;49991;50.518;30.486;2022-07-05T04:38:53;3.28;;;2.80;;
63836;SDS011;49991;50.518;30.486;2022-07-05T04:41:21;2.70;;;2.50;;
63836;SDS011;49991;50.518;30.486;2022-07-05T04:43:48;2.53;;;2.35;;
63836;SDS011;49991;50.518;30.486;2022-07-05T04:46:15;2.60;;;2.40;;
63836;SDS011;49991;50.518;30.486;2022-07-05T04:48:44;2.65;;;2.47;;
63836;SDS011;49991;50.518;30.486;2022-07-05T04:51:13;2.60;;;2.40;;
63836;SDS011;49991;50.518;30.486;2022-07-05T04:53:40;2.55;;;2.45;;
63836;SDS011;49991;50.518;30.486;2022-07-05T04:56:07;2.80;;;2.60;;
63836;SDS011;49991;50.518;30.486;2022-07-05T04:58:34;2.63;;;2.45;;
63836;SDS011;49991;50.518;30.486;2022-07-05T05:01:01;2.70;;;2.50;;
63836;SDS011;49991;50.518;30.486;2022-07-05T05:03:27;2.75;;;2.55;;
63836;SDS011;49991;50.518;30.486;2022-07-05T05:05:55;2.75;;;2.55;;
63836;SDS011;49991;50.518;30.486;2022-07-05T05:08:22;2.80;;;2.60;;
63836;SDS011;49991;50.518;30.486;2022-07-05T05:10:49;2.50;;;2.30;;
63836;SDS011;49991;50.518;30.486;2022-07-05T05:13:15;2.58;;;2.47;;
63836;SDS011;49991;50.518;30.486;2022-07-05T05:15:42;2.63;;;2.42;;
63836;SDS011;49991;50.518;30.486;2022-07-05T05:18:09;2.50;;;2.30;;
63836;SDS011;49991;50.518;30.486;2022-07-05T05:20:35;2.40;;;2.28;;
63836;SDS011;49991;50.518;30.486;2022-07-05T05:23:03;2.40;;;2.30;;
63836;SDS011;49991;50.518;30.486;2022-07-05T05:25:30;7.78;;;2.60;;
63836;SDS011;49991;50.518;30.486;2022-07-05T05:27:57;2.72;;;2.53;;
63836;SDS011;49991;50.518;30.486;2022-07-05T05:30:23;2.72;;;2.53;;
63836;SDS011;49991;50.518;30.486;2022-07-05T05:32:50;2.78;;;2.58;;
63836;SDS011;49991;50.518;30.486;2022-07-05T05:35:17;2.80;;;2.60;;
63836;SDS011;49991;50.518;30.486;2022-07-05T05:37:49;2.70;;;2.50;;
63836;SDS011;49991;50.518;30.486;2022-07-05T05:40:18;2.60;;;2.40;;
63836;SDS011;49991;50.518;30.486;2022-07-05T05:42:45;2.55;;;2.35;;
63836;SDS011;49991;50.518;30.486;2022-07-05T05:45:13;3.95;;;2.40;;
63836;SDS011;49991;50.518;30.486;2022-07-05T05:47:46;3.17;;;2.45;;
63836;SDS011;49991;50.518;30.486;2022-07-05T05:50:17;2.38;;;2.28;;
63836;SDS011;49991;50.518;30.486;2022-07-05T05:52:44;2.55;;;2.35;;
63836;SDS011;49991;50.518;30.486;2022-07-05T05:55:11;2.33;;;2.22;;
63836;SDS011;49991;50.518;30.486;2022-07-05T05:57:39;2.65;;;2.45;;
63836;SDS011;49991;50.518;30.486;2022-07-05T06:00:07;3.08;;;2.15;;
63836;SDS011;49991;50.518;30.486;2022-07-05T06:02:37;2.60;;;2.42;;
63836;SDS011;49991;50.518;30.486;2022-07-05T06:05:05;2.55;;;2.42;;
63836;SDS011;49991;50.518;30.486;2022-07-05T06:07:42;2.75;;;2.55;;
63836;SDS011;49991;50.518;30.486;2022-07-05T06:10:09;2.58;;;2.30;;
63836;SDS011;49991;50.518;30.486;2022-07-05T06:12:36;2.60;;;2.40;;
63836;SDS011;49991;50.518;30.486;2022-07-05T06:15:04;2.17;;;2.08;;
63836;SDS011;49991;50.518;30.486;2022-07-05T06:17:35;2.80;;;2.60;;
63836;SDS011;49991;50.518;30.486;2022-07-05T06:20:03;2.60;;;2.40;;
63836;SDS011;49991;50.518;30.486;2022-07-05T06:22:31;2.50;;;2.30;;
63836;SDS011;49991;50.518;30.486;2022-07-05T06:24:57;2.47;;;2.28;;
63836;SDS011;49991;50.518;30.486;2022-07-05T06:27:24;2.78;;;2.53;;
63836;SDS011;49991;50.518;30.486;2022-07-05T06:29:51;2.72;;;2.53;;
63836;SDS011;49991;50.518;30.486;2022-07-05T06:32:19;2.50;;;2.40;;
63836;SDS011;49991;50.518;30.486;2022-07-05T06:34:45;2.35;;;2.25;;
63836;SDS011;49991;50.518;30.486;2022-07-05T06:37:13;2.33;;;2.22;;
63836;SDS011;49991;50.518;30.486;2022-07-05T06:39:39;2.60;;;2.40;;
63836;SDS011;49991;50.518;30.486;2022-07-05T06:42:06;2.00;;;1.90;;
63836;SDS011;49991;50.518;30.486;2022-07-05T06:44:33;2.50;;;2.30;;
63836;SDS011;49991;50.518;30.486;2022-07-05T06:47:00;2.70;;;2.50;;
63836;SDS011;49991;50.518;30.486;2022-07-05T06:49:28;2.03;;;1.92;;
63836;SDS011;49991;50.518;30.486;2022-07-05T06:51:54;2.30;;;2.20;;
63836;SDS011;49991;50.518;30.486;2022-07-05T06:54:21;2.10;;;2.00;;
63836;SDS011;49991;50.518;30.486;2022-07-05T06:56:48;4.45;;;2.45;;
63836;SDS011;49991;50.518;30.486;2022-07-05T06:59:14;2.17;;;2.08;;
63836;SDS011;49991;50.518;30.486;2022-07-05T07:01:41;2.15;;;2.05;;
63836;SDS011;49991;50.518;30.486;2022-07-05T07:04:08;2.50;;;2.30;;
63836;SDS011;49991;50.518;30.486;2022-07-05T07:06:36;2.30;;;2.20;;
63836;SDS011;49991;50.518;30.486;2022-07-05T07:09:02;2.22;;;2.13;;
63836;SDS011;49991;50.518;30.486;2022-07-05T07:11:43;2.10;;;2.00;;
63836;SDS011;49991;50.518;30.486;2022-07-05T07:14:11;2.30;;;2.20;;
63836;SDS011;49991;50.518;30.486;2022-07-05T07:16:38;2.28;;;2.08;;
63836;SDS011;49991;50.518;30.486;2022-07-05T07:19:05;2.25;;;2.05;;
63836;SDS011;49991;50.518;30.486;2022-07-05T07:21:31;2.08;;;1.98;;
63836;SDS011;49991;50.518;30.486;2022-07-05T07:23:59;2.20;;;2.10;;
63836;SDS011;49991;50.518;30.486;2022-07-05T07:26:26;2.10;;;2.00;;
63836;SDS011;49991;50.518;30.486;2022-07-05T07:28:53;2.38;;;2.28;;
63836;SDS011;49991;50.518;30.486;2022-07-05T07:31:19;2.58;;;2.38;;
63836;SDS011;49991;50.518;30.486;2022-07-05T07:33:46;2.33;;;2.22;;
63836;SDS011;49991;50.518;30.486;2022-07-05T07:36:13;2.13;;;2.03;;
63836;SDS011;49991;50.518;30.486;2022-07-05T07:38:40;2.10;;;2.00;;
63836;SDS011;49991;50.518;30.486;2022-07-05T07:41:08;2.30;;;2.20;;
63836;SDS011;49991;50.518;30.486;2022-07-05T07:43:34;2.30;;;2.20;;
63836;SDS011;49991;50.518;30.486;2022-07-05T07:46:01;2.60;;;2.05;;
63836;SDS011;49991;50.518;30.486;2022-07-05T07:48:28;2.30;;;2.20;;
63836;SDS011;49991;50.518;30.486;2022-07-05T07:50:54;2.00;;;1.90;;
63836;SDS011;49991;50.518;30.486;2022-07-05T07:53:21;2.20;;;2.05;;
63836;SDS011;49991;50.518;30.486;2022-07-05T07:55:48;1.80;;;1.70;;
63836;SDS011;49991;50.518;30.486;2022-07-05T07:58:16;2.15;;;1.95;;
63836;SDS011;49991;50.518;30.486;2022-07-05T08:00:43;1.92;;;1.83;;
63836;SDS011;49991;50.518;30.486;2022-07-05T08:03:09;2.28;;;2.17;;
63836;SDS011;49991;50.518;30.486;2022-07-05T08:05:36;2.05;;;1.95;;
63836;SDS011;49991;50.518;30.486;2022-07-05T08:08:03;1.92;;;1.83;;
63836;SDS011;49991;50.518;30.486;2022-07-05T08:10:30;1.90;;;1.80;;
63836;SDS011;49991;50.518;30.486;2022-07-05T08:12:57;2.03;;;1.92;;
63836;SDS011;49991;50.518;30.486;2022-07-05T08:15:25;2.92;;;1.80;;
63836;SDS011;49991;50.518;30.486;2022-07-05T08:17:52;2.30;;;2.10;;
63836;SDS011;49991;50.518;30.486;2022-07-05T08:20:36;2.20;;;2.10;;
63836;SDS011;49991;50.518;30.486;2022-07-05T08:23:20;1.75;;;1.65;;
63836;SDS011;49991;50.518;30.486;2022-07-05T08:25:47;2.00;;;1.90;;
63836;SDS011;49991;50.518;30.486;2022-07-05T08:28:13;1.92;;;1.83;;
63836;SDS011;49991;50.518;30.486;2022-07-05T08:30:41;1.90;;;1.80;;
63836;SDS011;49991;50.518;30.486;2022-07-05T08:33:08;2.00;;;1.90;;
63836;SDS011;49991;50.518;30.486;2022-07-05T08:35:35;1.83;;;1.70;;
63836;SDS011;49991;50.518;30.486;2022-07-05T08:38:02;2.10;;;2.00;;
63836;SDS011;49991;50.518;30.486;2022-07-05T08:40:28;2.00;;;1.90;;
63836;SDS011;49991;50.518;30.486;2022-07-05T08:42:59;2.10;;;2.00;;
63836;SDS011;49991;50.518;30.486;2022-07-05T08:45:28;2.00;;;1.90;;
63836;SDS011;49991;50.518;30.486;2022-07-05T08:47:58;1.98;;;1.88;;
63836;SDS011;49991;50.518;30.486;2022-07-05T08:50:26;2.00;;;1.90;;
63836;SDS011;49991;50.518;30.486;2022-07-05T08:52:53;1.70;;;1.60;;
63836;SDS011;49991;50.518;30.486;2022-07-05T08:55:20;2.55;;;1.90;;
63836;SDS011;49991;50.518;30.486;2022-07-05T08:57:47;1.85;;;1.75;;
63836;SDS011;49991;50.518;30.486;2022-07-05T09:00:14;1.92;;;1.70;;
63836;SDS011;49991;50.518;30.486;2022-07-05T09:02:41;2.05;;;1.95;;
63836;SDS011;49991;50.518;30.486;2022-07-05T09:05:10;1.75;;;1.65;;
63836;SDS011;49991;50.518;30.486;2022-07-05T09:07:40;1.70;;;1.60;;
63836;SDS011;49991;50.518;30.486;2022-07-05T09:10:14;2.15;;;1.90;;
63836;SDS011;49991;50.518;30.486;2022-07-05T09:12:44;2.00;;;1.90;;
63836;SDS011;49991;50.518;30.486;2022-07-05T09:15:11;1.70;;;1.60;;
63836;SDS011;49991;50.518;30.486;2022-07-05T09:17:41;1.77;;;1.67;;
63836;SDS011;49991;50.518;30.486;2022-07-05T09:20:11;1.90;;;1.80;;
63836;SDS011;49991;50.518;30.486;2022-07-05T09:22:45;1.70;;;1.60;;
63836;SDS011;49991;50.518;30.486;2022-07-05T09:25:14;2.10;;;1.90;;
63836;SDS011;49991;50.518;30.486;2022-07-05T09:27:46;1.92;;;1.83;;
63836;SDS011;49991;50.518;30.486;2022-07-05T09:30:22;1.95;;;1.85;;
63836;SDS011;49991;50.518;30.486;2022-07-05T09:32:59;2.00;;;1.90;;
63836;SDS011;49991;50.518;30.486;2022-07-05T09:35:27;1.85;;;1.75;;
63836;SDS011;49991;50.518;30.486;2022-07-05T09:37:54;1.80;;;1.70;;
63836;SDS011;49991;50.518;30.486;2022-07-05T09:40:21;1.70;;;1.60;;
63836;SDS011;49991;50.518;30.486;2022-07-05T09:42:48;2.00;;;1.80;;
63836;SDS011;49991;50.518;30.486;2022-07-05T09:45:20;2.10;;;2.00;;
63836;SDS011;49991;50.518;30.486;2022-07-05T09:47:48;2.00;;;1.90;;
63836;SDS011;49991;50.518;30.486;2022-07-05T09:50:15;1.80;;;1.70;;
63836;SDS011;49991;50.518;30.486;2022-07-05T09:53:00;2.05;;;1.95;;
63836;SDS011;49991;50.518;30.486;2022-07-05T09:55:27;1.83;;;1.73;;
63836;SDS011;49991;50.518;30.486;2022-07-05T09:57:54;1.80;;;1.70;;
63836;SDS011;49991;50.518;30.486;2022-07-05T10:00:21;1.80;;;1.70;;
63836;SDS011;49991;50.518;30.486;2022-07-05T10:02:48;1.67;;;1.63;;
63836;SDS011;49991;50.518;30.486;2022-07-05T10:05:16;3.63;;;1.83;;
63836;SDS011;49991;50.518;30.486;2022-07-05T10:07:46;1.67;;;1.58;;
63836;SDS011;49991;50.518;30.486;2022-07-05T10:10:15;1.77;;;1.67;;
63836;SDS011;49991;50.518;30.486;2022-07-05T10:12:43;1.35;;;1.35;;
63836;SDS011;49991;50.518;30.486;2022-07-05T10:15:11;1.65;;;1.55;;
63836;SDS011;49991;50.518;30.486;2022-07-05T10:17:40;1.65;;;1.55;;
63836;SDS011;49991;50.518;30.486;2022-07-05T10:20:14;1.85;;;1.75;;
63836;SDS011;49991;50.518;30.486;2022-07-05T10:22:47;2.03;;;1.92;;
63836;SDS011;49991;50.518;30.486;2022-07-05T10:25:14;1.52;;;1.52;;
63836;SDS011;49991;50.518;30.486;2022-07-05T10:27:42;1.80;;;1.70;;
63836;SDS011;49991;50.518;30.486;2022-07-05T10:30:09;1.80;;;1.70;;
63836;SDS011;49991;50.518;30.486;2022-07-05T10:32:38;1.75;;;1.65;;
63836;SDS011;49991;50.518;30.486;2022-07-05T10:35:06;1.63;;;1.52;;
63836;SDS011;49991;50.518;30.486;2022-07-05T10:37:34;1.88;;;1.77;;
63836;SDS011;49991;50.518;30.486;2022-07-05T10:40:03;1.85;;;1.75;;
63836;SDS011;49991;50.518;30.486;2022-07-05T10:42:32;1.40;;;1.40;;
63836;SDS011;49991;50.518;30.486;2022-07-05T10:45:02;1.90;;;1.80;;
63836;SDS011;49991;50.518;30.486;2022-07-05T10:47:29;1.67;;;1.58;;
63836;SDS011;49991;50.518;30.486;2022-07-05T10:50:01;1.80;;;1.70;;
63836;SDS011;49991;50.518;30.486;2022-07-05T10:52:30;1.63;;;1.52;;
63836;SDS011;49991;50.518;30.486;2022-07-05T11:00:47;1.80;;;1.70;;
63836;SDS011;49991;50.518;30.486;2022-07-05T11:03:33;1.70;;;1.63;;
63836;SDS011;49991;50.518;30.486;2022-07-05T11:06:01;1.73;;;1.63;;
63836;SDS011;49991;50.518;30.486;2022-07-05T11:08:30;1.80;;;1.70;;
63836;SDS011;49991;50.518;30.486;2022-07-05T11:11:10;1.83;;;1.73;;
63836;SDS011;49991;50.518;30.486;2022-07-05T11:13:38;1.83;;;1.73;;
63836;SDS011;49991;50.518;30.486;2022-07-05T11:16:21;2.20;;;2.10;;
63836;SDS011;49991;50.518;30.486;2022-07-05T11:18:49;1.60;;;1.50;;
63836;SDS011;49991;50.518;30.486;2022-07-05T11:21:16;1.50;;;1.50;;
63836;SDS011;49991;50.518;30.486;2022-07-05T11:23:44;1.55;;;1.45;;
63836;SDS011;49991;50.518;30.486;2022-07-05T11:26:12;1.70;;;1.60;;
63836;SDS011;49991;50.518;30.486;2022-07-05T11:28:42;1.85;;;1.75;;
63836;SDS011;49991;50.518;30.486;2022-07-05T11:31:10;1.70;;;1.60;;
63836;SDS011;49991;50.518;30.486;2022-07-05T11:33:38;1.70;;;1.60;;
63836;SDS011;49991;50.518;30.486;2022-07-05T11:36:19;1.80;;;1.70;;
63836;SDS011;49991;50.518;30.486;2022-07-05T11:41:47;1.90;;;1.80;;
63836;SDS011;49991;50.518;30.486;2022-07-05T11:44:14;1.80;;;1.70;;
63836;SDS011;49991;50.518;30.486;2022-07-05T11:46:42;1.60;;;1.60;;
63836;SDS011;49991;50.518;30.486;2022-07-05T11:49:09;1.80;;;1.70;;
63836;SDS011;49991;50.518;30.486;2022-07-05T11:51:36;1.80;;;1.70;;
63836;SDS011;49991;50.518;30.486;2022-07-05T11:54:02;1.85;;;1.55;;
63836;SDS011;49991;50.518;30.486;2022-07-05T11:56:30;1.60;;;1.50;;
63836;SDS011;49991;50.518;30.486;2022-07-05T11:58:58;1.80;;;1.70;;
63836;SDS011;49991;50.518;30.486;2022-07-05T12:01:25;1.70;;;1.60;;
63836;SDS011;49991;50.518;30.486;2022-07-05T12:03:52;1.50;;;1.50;;
63836;SDS011;49991;50.518;30.486;2022-07-05T12:06:21;1.60;;;1.50;;
63836;SDS011;49991;50.518;30.486;2022-07-05T12:09:00;1.70;;;1.60;;
63836;SDS011;49991;50.518;30.486;2022-07-05T12:11:27;1.80;;;1.70;;
63836;SDS011;49991;50.518;30.486;2022-07-05T12:14:20;1.60;;;1.50;;
63836;SDS011;49991;50.518;30.486;2022-07-05T12:16:47;1.70;;;1.60;;
63836;SDS011;49991;50.518;30.486;2022-07-05T12:19:23;1.85;;;1.75;;
63836;SDS011;49991;50.518;30.486;2022-07-05T12:21:52;1.83;;;1.73;;
63836;SDS011;49991;50.518;30.486;2022-07-05T12:24:19;1.60;;;1.60;;
63836;SDS011;49991;50.518;30.486;2022-07-05T12:26:46;1.55;;;1.55;;
63836;SDS011;49991;50.518;30.486;2022-07-05T12:29:13;1.70;;;1.60;;
63836;SDS011;49991;50.518;30.486;2022-07-05T12:34:28;2.00;;;1.90;;
63836;SDS011;49991;50.518;30.486;2022-07-05T12:36:56;1.75;;;1.65;;
63836;SDS011;49991;50.518;30.486;2022-07-05T12:39:23;1.70;;;1.60;;
63836;SDS011;49991;50.518;30.486;2022-07-05T12:41:50;1.67;;;1.58;;
63836;SDS011;49991;50.518;30.486;2022-07-05T12:44:18;1.42;;;1.42;;
63836;SDS011;49991;50.518;30.486;2022-07-05T12:46:45;1.80;;;1.70;;
63836;SDS011;49991;50.518;30.486;2022-07-05T12:49:15;1.80;;;1.70;;
63836;SDS011;49991;50.518;30.486;2022-07-05T12:51:42;1.73;;;1.63;;
63836;SDS011;49991;50.518;30.486;2022-07-05T12:54:18;1.77;;;1.67;;
63836;SDS011;49991;50.518;30.486;2022-07-05T12:57:03;1.67;;;1.58;;
63836;SDS011;49991;50.518;30.486;2022-07-05T12:59:57;1.55;;;1.50;;
63836;SDS011;49991;50.518;30.486;2022-07-05T13:02:35;1.70;;;1.60;;
63836;SDS011;49991;50.518;30.486;2022-07-05T13:05:05;1.70;;;1.60;;
63836;SDS011;49991;50.518;30.486;2022-07-05T13:07:40;1.70;;;1.60;;
63836;SDS011;49991;50.518;30.486;2022-07-05T13:10:17;1.70;;;1.60;;
63836;SDS011;49991;50.518;30.486;2022-07-05T13:12:45;1.50;;;1.50;;
63836;SDS011;49991;50.518;30.486;2022-07-05T13:15:12;1.60;;;1.50;;
63836;SDS011;49991;50.518;30.486;2022-07-05T13:17:39;1.80;;;1.70;;
63836;SDS011;49991;50.518;30.486;2022-07-05T13:20:08;1.55;;;1.50;;
63836;SDS011;49991;50.518;30.486;2022-07-05T13:22:36;1.67;;;1.60;;
63836;SDS011;49991;50.518;30.486;2022-07-05T13:25:03;1.67;;;1.67;;
63836;SDS011;49991;50.518;30.486;2022-07-05T13:27:31;1.45;;;1.42;;
63836;SDS011;49991;50.518;30.486;2022-07-05T13:29:57;1.70;;;1.60;;
63836;SDS011;49991;50.518;30.486;2022-07-05T13:32:24;1.83;;;1.73;;
63836;SDS011;49991;50.518;30.486;2022-07-05T13:34:53;1.63;;;1.60;;
63836;SDS011;49991;50.518;30.486;2022-07-05T13:37:21;1.80;;;1.70;;
63836;SDS011;49991;50.518;30.486;2022-07-05T13:39:48;2.22;;;1.83;;
63836;SDS011;49991;50.518;30.486;2022-07-05T13:42:15;1.45;;;1.45;;
63836;SDS011;49991;50.518;30.486;2022-07-05T13:44:41;2.00;;;1.90;;
63836;SDS011;49991;50.518;30.486;2022-07-05T13:47:08;1.85;;;1.75;;
63836;SDS011;49991;50.518;30.486;2022-07-05T13:49:36;1.80;;;1.70;;
63836;SDS011;49991;50.518;30.486;2022-07-05T13:52:05;1.80;;;1.70;;
63836;SDS011;49991;50.518;30.486;2022-07-05T13:54:33;1.85;;;1.75;;
63836;SDS011;49991;50.518;30.486;2022-07-05T13:57:00;1.70;;;1.60;;
63836;SDS011;49991;50.518;30.486;2022-07-05T13:59:27;1.95;;;1.85;;
63836;SDS011;49991;50.518;30.486;2022-07-05T14:01:54;1.50;;;1.40;;
63836;SDS011;49991;50.518;30.486;2022-07-05T14:04:20;1.90;;;1.80;;
63836;SDS011;49991;50.518;30.486;2022-07-05T14:06:48;1.65;;;1.55;;
63836;SDS011;49991;50.518;30.486;2022-07-05T14:09:15;1.50;;;1.50;;
63836;SDS011;49991;50.518;30.486;2022-07-05T14:11:43;1.80;;;1.70;;
63836;SDS011;49991;50.518;30.486;2022-07-05T14:14:10;2.05;;;1.95;;
63836;SDS011;49991;50.518;30.486;2022-07-05T14:16:38;1.90;;;1.80;;
63836;SDS011;49991;50.518;30.486;2022-07-05T14:19:04;1.80;;;1.70;;
63836;SDS011;49991;50.518;30.486;2022-07-05T14:21:31;1.80;;;1.70;;
63836;SDS011;49991;50.518;30.486;2022-07-05T14:23:58;1.77;;;1.50;;
63836;SDS011;49991;50.518;30.486;2022-07-05T14:26:25;2.00;;;1.90;;
63836;SDS011;49991;50.518;30.486;2022-07-05T14:28:54;2.97;;;1.70;;
63836;SDS011;49991;50.518;30.486;2022-07-05T14:31:20;1.75;;;1.65;;
63836;SDS011;49991;50.518;30.486;2022-07-05T14:33:47;1.40;;;1.38;;
63836;SDS011;49991;50.518;30.486;2022-07-05T14:36:14;1.70;;;1.67;;
63836;SDS011;49991;50.518;30.486;2022-07-05T14:38:42;1.90;;;1.80;;
63836;SDS011;49991;50.518;30.486;2022-07-05T14:41:09;1.65;;;1.55;;
63836;SDS011;49991;50.518;30.486;2022-07-05T14:43:36;2.10;;;2.00;;
63836;SDS011;49991;50.518;30.486;2022-07-05T14:46:04;1.60;;;1.60;;
63836;SDS011;49991;50.518;30.486;2022-07-05T14:48:33;1.48;;;1.48;;
63836;SDS011;49991;50.518;30.486;2022-07-05T14:50:59;1.73;;;1.70;;